Time;durP1;ratioP1;P1;durP2;ratioP2;P2;SDS_P1;SDS_P2;PMS_P1;PMS_P2;Temp;Humidity;BMP_temperature;BMP_pressure;BME280_temperature;BME280_humidity;BME280_pressure;Samples;Min_cycle;Max_cycle;Signal;HPM_P1;HPM_P2
2022/03/23 00:02:12;;;;;;;73.10;36.70;;;;;;;1.36;50.29;101918.02;130282;1268;98779;-75
2022/03/23 00:05:17;;;;;;;69.20;37.10;;;;;;;1.34;50.44;101917.39;130315;1267;99264;-76
2022/03/23 00:08:20;;;;;;;66.30;34.20;;;;;;;1.31;50.46;101913.63;130486;1267;98831;-76
2022/03/23 00:11:22;;;;;;;72.00;36.50;;;;;;;1.29;50.56;101910.90;130404;1268;99245;-76
2022/03/23 00:14:25;;;;;;;74.00;36.80;;;;;;;1.26;50.55;101913.30;130349;1268;98681;-76
2022/03/23 00:17:28;;;;;;;67.00;35.10;;;;;;;1.23;50.73;101907.45;130303;1268;98757;-76
2022/03/23 00:20:31;;;;;;;60.50;34.50;;;;;;;1.23;50.63;101909.38;130290;1268;98001;-77
2022/03/23 00:23:34;;;;;;;68.10;34.70;;;;;;;1.20;50.64;101908.75;130262;1268;212455;-76
2022/03/23 00:26:37;;;;;;;72.80;36.20;;;;;;;1.19;50.53;101910.23;130318;1267;99154;-77
2022/03/23 00:29:40;;;;;;;70.90;36.30;;;;;;;1.16;50.63;101911.16;130338;1267;99086;-77
2022/03/23 00:32:43;;;;;;;73.00;36.90;;;;;;;1.11;50.66;101907.31;130333;1268;98017;-78
2022/03/23 00:35:46;;;;;;;75.60;37.10;;;;;;;1.05;50.76;101908.55;130387;1268;98141;-78
2022/03/23 00:38:50;;;;;;;78.10;40.70;;;;;;;1.03;51.07;101903.04;130319;1268;98617;-78
2022/03/23 00:41:53;;;;;;;77.60;37.70;;;;;;;1.02;51.26;101905.69;130337;1267;99166;-75
2022/03/23 00:44:55;;;;;;;72.80;36.70;;;;;;;1.01;51.27;101901.70;130338;1268;99155;-78
2022/03/23 00:47:59;;;;;;;65.90;33.90;;;;;;;0.97;51.42;101903.20;130402;1267;97963;-77
2022/03/23 00:51:02;;;;;;;59.20;32.40;;;;;;;0.96;51.53;101903.61;130440;1267;97966;-78
2022/03/23 00:54:05;;;;;;;61.80;32.70;;;;;;;0.92;51.56;101906.20;130434;1268;99253;-77
2022/03/23 00:57:10;;;;;;;64.50;33.50;;;;;;;0.88;51.59;101904.91;130375;1267;98049;-76
2022/03/23 01:00:16;;;;;;;62.40;32.30;;;;;;;0.84;51.38;101906.63;130354;1268;97989;-77
2022/03/23 01:03:20;;;;;;;58.90;30.20;;;;;;;0.80;51.42;101905.52;130355;1268;99133;-76
2022/03/23 01:06:23;;;;;;;57.10;30.20;;;;;;;0.70;51.85;101903.92;130370;1267;98764;-76
2022/03/23 01:09:26;;;;;;;60.80;31.80;;;;;;;0.66;51.80;101905.63;130339;1268;98579;-76
2022/03/23 01:12:29;;;;;;;58.20;32.10;;;;;;;0.65;51.88;101904.08;130385;1268;97940;-77
2022/03/23 01:15:33;;;;;;;63.90;33.60;;;;;;;0.63;51.91;101902.75;130306;1268;97986;-77
2022/03/23 01:18:36;;;;;;;60.70;31.70;;;;;;;0.56;52.06;101903.84;130330;1268;98054;-77
2022/03/23 01:21:40;;;;;;;63.40;32.30;;;;;;;0.54;52.06;101903.02;130375;1268;97969;-76
2022/03/23 01:24:43;;;;;;;60.70;33.10;;;;;;;0.55;52.12;101903.17;130338;1268;97982;-78
2022/03/23 01:27:47;;;;;;;57.40;31.60;;;;;;;0.54;51.83;101903.02;130371;1268;97967;-78
2022/03/23 01:30:50;;;;;;;64.10;31.80;;;;;;;0.53;52.05;101902.88;130359;1268;97968;-76
2022/03/23 01:33:59;;;;;;;64.00;32.50;;;;;;;0.52;52.20;101899.07;130329;1268;98764;-76
2022/03/23 01:37:02;;;;;;;62.10;32.50;;;;;;;0.51;51.87;101900.48;130344;1268;99041;-77
2022/03/23 01:40:08;;;;;;;66.00;34.00;;;;;;;0.49;52.05;101897.21;130419;1268;98211;-76
2022/03/23 01:43:13;;;;;;;64.50;32.60;;;;;;;0.45;52.14;101899.46;130328;1268;97959;-76
2022/03/23 01:46:17;;;;;;;65.60;33.00;;;;;;;0.37;52.14;101897.23;130320;1268;98474;-76
2022/03/23 01:49:20;;;;;;;63.40;33.80;;;;;;;0.34;52.43;101896.10;130352;1268;99071;-76
2022/03/23 01:52:25;;;;;;;70.40;34.50;;;;;;;0.29;52.67;101889.63;130323;1268;98883;-76
2022/03/23 01:55:27;;;;;;;73.30;35.10;;;;;;;0.23;52.44;101889.08;130335;1268;99054;-77
2022/03/23 01:58:30;;;;;;;70.70;34.60;;;;;;;0.24;52.53;101885.58;130274;1268;99220;-78
2022/03/23 02:01:34;;;;;;;72.20;35.00;;;;;;;0.22;52.47;101877.23;130270;1268;97982;-77
2022/03/23 02:04:37;;;;;;;69.50;34.00;;;;;;;0.22;52.65;101876.18;130340;1268;98751;-77
2022/03/23 02:07:40;;;;;;;66.90;33.40;;;;;;;0.18;52.52;101873.48;130419;1268;99175;-77
2022/03/23 02:10:43;;;;;;;68.80;33.70;;;;;;;0.15;52.62;101873.42;130367;1268;97982;-77
2022/03/23 02:13:49;;;;;;;66.60;33.20;;;;;;;0.11;52.76;101872.33;130305;1268;98465;-77
2022/03/23 02:16:53;;;;;;;67.20;34.30;;;;;;;0.09;52.64;101872.02;130381;1268;97992;-77
2022/03/23 02:19:56;;;;;;;64.20;33.80;;;;;;;0.09;52.58;101871.13;130316;1268;99180;-79
2022/03/23 02:22:59;;;;;;;62.90;32.10;;;;;;;0.08;52.67;101867.33;130291;1267;98735;-76
2022/03/23 02:26:02;;;;;;;67.90;33.80;;;;;;;0.09;52.76;101869.39;130295;1268;98113;-76
2022/03/23 02:29:05;;;;;;;66.40;33.60;;;;;;;0.08;52.67;101871.70;130329;1268;99145;-76
2022/03/23 02:32:09;;;;;;;66.00;33.60;;;;;;;0.07;52.71;101871.05;130397;1268;99083;-76
2022/03/23 02:35:12;;;;;;;67.40;33.00;;;;;;;0.04;52.66;101869.38;131075;1268;99048;-78
2022/03/23 02:38:14;;;;;;;66.80;33.30;;;;;;;0.04;52.74;101871.48;130738;1267;98040;-76
2022/03/23 02:41:17;;;;;;;71.40;34.40;;;;;;;0.04;52.84;101867.27;130598;1268;98494;-77
2022/03/23 02:44:21;;;;;;;62.50;33.20;;;;;;;0.00;52.96;101863.89;130459;1267;99045;-77
2022/03/23 02:47:24;;;;;;;64.70;33.00;;;;;;;-0.03;53.05;101862.05;130549;1267;98639;-75
2022/03/23 02:50:27;;;;;;;66.60;32.40;;;;;;;-0.09;52.82;101858.54;130379;1268;99041;-75
2022/03/23 03:03:58;;;;;;;64.90;32.70;;;;;;;-0.13;53.12;101851.67;130401;1268;97987;-73
2022/03/23 03:07:00;;;;;;;65.90;33.40;;;;;;;-0.13;53.03;101853.80;130577;1268;98082;-73
2022/03/23 03:10:04;;;;;;;70.00;34.60;;;;;;;-0.15;53.15;101849.98;130373;1268;97989;-74
2022/03/23 03:13:07;;;;;;;71.00;36.00;;;;;;;-0.17;53.15;101844.29;130368;1270;99227;-73
2022/03/23 03:16:10;;;;;;;70.50;35.40;;;;;;;-0.20;53.18;101849.96;130295;1270;98834;-74
2022/03/23 03:19:13;;;;;;;73.30;36.60;;;;;;;-0.22;53.18;101847.39;130300;1270;98761;-74
2022/03/23 03:22:16;;;;;;;72.00;35.10;;;;;;;-0.24;53.25;101855.65;130275;1270;98534;-75
2022/03/23 03:25:21;;;;;;;73.50;36.20;;;;;;;-0.27;53.41;101851.21;130270;1270;98776;-75
2022/03/23 03:28:24;;;;;;;70.90;35.30;;;;;;;-0.32;53.31;101850.66;130253;1270;98642;-74
2022/03/23 03:31:26;;;;;;;71.50;36.10;;;;;;;-0.34;53.37;101847.73;130271;1270;97956;-76
2022/03/23 03:34:29;;;;;;;76.20;37.50;;;;;;;-0.43;53.21;101841.55;130276;1270;98799;-75
2022/03/23 03:37:32;;;;;;;75.00;36.10;;;;;;;-0.52;53.52;101837.58;130445;1270;98077;-74
2022/03/23 03:40:35;;;;;;;77.10;37.50;;;;;;;-0.55;53.43;101840.80;130312;1269;99156;-76
2022/03/23 03:43:38;;;;;;;72.40;36.70;;;;;;;-0.55;53.63;101840.64;130227;1270;98309;-78
2022/03/23 03:46:41;;;;;;;71.10;35.30;;;;;;;-0.54;53.28;101842.02;130212;1270;98699;-77
2022/03/23 03:49:43;;;;;;;77.60;36.40;;;;;;;-0.61;53.31;101842.20;130230;1269;99156;-76
2022/03/23 03:52:46;;;;;;;84.20;38.40;;;;;;;-0.64;53.42;101841.39;130249;1270;98541;-77
2022/03/23 03:55:49;;;;;;;80.10;37.80;;;;;;;-0.65;53.69;101841.61;130315;1270;98021;-74
2022/03/23 03:58:53;;;;;;;78.70;38.90;;;;;;;-0.65;53.77;101837.23;130246;1270;98773;-74
2022/03/23 04:01:55;;;;;;;79.90;37.70;;;;;;;-0.64;53.52;101836.69;130290;1269;97962;-72
2022/03/23 04:04:58;;;;;;;74.60;37.60;;;;;;;-0.65;53.77;101834.09;130336;1270;97968;-75
2022/03/23 04:08:01;;;;;;;80.50;37.30;;;;;;;-0.66;53.62;101831.65;130287;1270;98552;-75
2022/03/23 04:11:04;;;;;;;80.50;38.10;;;;;;;-0.65;53.52;101833.22;130285;1269;98075;-75
2022/03/23 04:14:07;;;;;;;80.60;37.80;;;;;;;-0.66;53.77;101833.23;130272;1271;98589;-74
2022/03/23 04:17:10;;;;;;;76.70;38.30;;;;;;;-0.66;53.79;101833.77;130274;1270;98446;-74
2022/03/23 04:20:13;;;;;;;81.40;39.30;;;;;;;-0.68;53.84;101831.21;130340;1270;97976;-78
2022/03/23 04:23:16;;;;;;;80.50;38.20;;;;;;;-0.70;53.86;101827.60;130513;1270;99135;-78
2022/03/23 04:26:19;;;;;;;80.50;38.60;;;;;;;-0.73;53.88;101825.73;130287;1270;97974;-76
2022/03/23 04:29:24;;;;;;;76.00;37.30;;;;;;;-0.72;53.81;101820.66;130275;1270;98800;-76
2022/03/23 04:32:27;;;;;;;78.60;38.00;;;;;;;-0.73;54.03;101819.63;130600;1270;99136;-75
2022/03/23 04:35:30;;;;;;;73.40;36.10;;;;;;;-0.76;54.12;101823.02;130394;1270;97939;-77
2022/03/23 04:38:33;;;;;;;71.80;36.30;;;;;;;-0.81;54.17;101823.86;130702;1270;99178;-78
2022/03/23 04:41:35;;;;;;;72.20;35.70;;;;;;;-0.79;54.28;101824.17;130627;1271;97994;-76
2022/03/23 04:44:38;;;;;;;76.50;37.00;;;;;;;-0.79;54.24;101819.44;130302;1270;99169;-75
2022/03/23 04:47:41;;;;;;;76.60;36.70;;;;;;;-0.80;54.35;101818.77;130283;1270;97979;-76
2022/03/23 04:50:44;;;;;;;71.30;35.40;;;;;;;-0.81;54.52;101820.73;130404;1269;98422;-77
2022/03/23 04:53:47;;;;;;;72.40;36.10;;;;;;;-0.78;54.38;101822.77;130295;1270;98712;-75
2022/03/23 04:56:49;;;;;;;72.30;36.20;;;;;;;-0.76;54.32;101823.20;130426;1269;98423;-75
2022/03/23 04:59:52;;;;;;;71.60;34.70;;;;;;;-0.75;54.57;101824.05;130403;1270;98054;-76
2022/03/23 05:02:55;;;;;;;72.30;34.90;;;;;;;-0.74;54.65;101821.95;130282;1269;99153;-75
2022/03/23 05:05:57;;;;;;;74.40;36.00;;;;;;;-0.70;54.61;101823.08;130367;1270;97998;-76
2022/03/23 05:09:00;;;;;;;68.30;34.70;;;;;;;-0.64;54.92;101820.44;130551;1270;97966;-76
2022/03/23 05:12:04;;;;;;;66.70;33.30;;;;;;;-0.59;55.08;101820.27;130281;1270;97968;-73
2022/03/23 05:15:09;;;;;;;69.90;35.80;;;;;;;-0.54;54.95;101818.95;130359;1270;99159;-76
2022/03/23 05:18:13;;;;;;;67.60;33.70;;;;;;;-0.51;54.99;101818.67;130345;1270;97977;-74
2022/03/23 05:21:15;;;;;;;65.70;33.10;;;;;;;-0.49;55.10;101814.77;130307;1270;101185;-75
2022/03/23 05:24:18;;;;;;;62.70;32.20;;;;;;;-0.45;55.25;101814.65;130393;1270;98069;-76
2022/03/23 05:27:21;;;;;;;62.90;31.50;;;;;;;-0.38;55.20;101808.52;130438;1270;98655;-77
2022/03/23 05:30:24;;;;;;;61.50;31.50;;;;;;;-0.34;55.10;101805.06;130357;1271;97964;-74
2022/03/23 05:33:27;;;;;;;77.70;32.30;;;;;;;-0.25;55.35;101800.27;130330;1270;98210;-75
2022/03/23 05:36:30;;;;;;;75.00;31.80;;;;;;;-0.19;55.51;101798.33;130314;1268;98714;-78
2022/03/23 05:39:34;;;;;;;60.40;31.50;;;;;;;-0.08;55.57;101799.40;130373;1268;99161;-76
2022/03/23 05:42:37;;;;;;;60.10;31.10;;;;;;;0.05;55.67;101795.86;130313;1270;98022;-78
2022/03/23 05:45:40;;;;;;;60.70;30.30;;;;;;;0.16;55.76;101795.86;130279;1270;98017;-75
2022/03/23 05:48:44;;;;;;;57.60;29.90;;;;;;;0.30;56.00;101790.34;130239;1270;99063;-75
2022/03/23 05:51:47;;;;;;;60.10;30.00;;;;;;;0.44;56.23;101787.27;130261;1269;97966;-75
2022/03/23 05:54:49;;;;;;;60.00;29.40;;;;;;;0.58;56.24;101787.34;130279;1270;98059;-76
2022/03/23 05:57:52;;;;;;;56.70;30.20;;;;;;;0.72;56.26;101793.17;130443;1271;98045;-76
2022/03/23 06:00:55;;;;;;;54.00;28.90;;;;;;;0.84;56.44;101790.14;130428;1268;99183;-75
2022/03/23 06:03:57;;;;;;;58.80;29.70;;;;;;;0.97;56.64;101789.32;130381;1269;99131;-76
2022/03/23 06:07:00;;;;;;;58.10;28.70;;;;;;;1.11;56.92;101783.91;130272;1271;98001;-75
2022/03/23 06:10:03;;;;;;;51.70;28.20;;;;;;;1.29;56.87;101785.22;130309;1270;99146;-76
2022/03/23 06:13:06;;;;;;;42.50;23.60;;;;;;;1.44;57.00;101782.91;130274;1268;98107;-75
2022/03/23 06:16:09;;;;;;;53.20;27.20;;;;;;;1.61;57.23;101789.47;130216;1270;99197;-75
2022/03/23 06:19:13;;;;;;;54.80;29.80;;;;;;;1.82;57.11;101785.69;130208;1270;99171;-75
2022/03/23 06:22:16;;;;;;;53.40;29.00;;;;;;;2.03;57.10;101786.27;130441;1270;112407;-75
2022/03/23 06:25:19;;;;;;;54.70;28.80;;;;;;;2.24;57.28;101782.81;130353;1270;97989;-75
2022/03/23 06:28:23;;;;;;;56.70;30.50;;;;;;;2.47;57.47;101782.05;130542;1271;97976;-75
2022/03/23 06:31:26;;;;;;;56.00;29.70;;;;;;;2.70;57.89;101781.64;130353;1271;112322;-75
2022/03/23 06:34:28;;;;;;;53.50;29.60;;;;;;;2.91;57.75;101778.98;130425;1269;99163;-75
2022/03/23 06:37:31;;;;;;;55.00;29.90;;;;;;;3.09;57.73;101777.50;130327;1270;97962;-76
2022/03/23 06:40:34;;;;;;;51.30;29.80;;;;;;;3.28;57.89;101783.18;130416;1268;99008;-75
2022/03/23 06:43:38;;;;;;;50.40;29.80;;;;;;;3.47;57.98;101780.54;130300;1270;98484;-74
2022/03/23 06:46:40;;;;;;;52.60;29.10;;;;;;;3.67;57.99;101782.30;130216;1270;97966;-76
2022/03/23 06:49:43;;;;;;;49.90;28.30;;;;;;;3.85;57.88;101785.66;130367;1270;99196;-76
2022/03/23 06:52:46;;;;;;;47.70;28.30;;;;;;;4.02;57.85;101786.25;130558;1271;97969;-76
2022/03/23 06:55:49;;;;;;;49.90;27.80;;;;;;;4.22;57.51;101780.39;130347;1270;99153;-75
2022/03/23 06:58:52;;;;;;;48.60;27.60;;;;;;;4.41;57.28;101775.92;130489;1270;98013;-75
2022/03/23 07:01:55;;;;;;;45.80;27.10;;;;;;;4.62;57.13;101776.11;130504;1268;99147;-74
2022/03/23 07:04:57;;;;;;;47.80;27.00;;;;;;;4.80;57.09;101768.70;130302;1270;97963;-77
2022/03/23 07:11:21;;;;;;;45.80;26.40;;;;;;;5.23;56.88;101769.10;130473;1269;112537;-74
2022/03/23 07:14:24;;;;;;;46.40;26.00;;;;;;;5.44;56.64;101765.50;130453;1268;99324;-75
2022/03/23 07:17:26;;;;;;;40.00;24.40;;;;;;;5.61;56.47;101765.08;130510;1268;97965;-78
2022/03/23 07:20:29;;;;;;;42.60;25.60;;;;;;;5.77;56.21;101763.20;130540;1268;98673;-75
2022/03/23 07:23:34;;;;;;;43.30;25.30;;;;;;;5.95;56.04;101758.34;130367;1268;97973;-75
2022/03/23 07:26:37;;;;;;;40.40;24.40;;;;;;;6.12;55.96;101756.33;130368;1267;112348;-77
2022/03/23 07:29:40;;;;;;;52.60;28.70;;;;;;;6.28;55.85;101753.47;130422;1267;112531;-76
2022/03/23 07:32:43;;;;;;;45.30;25.70;;;;;;;6.48;55.82;101754.23;130320;1268;98760;-76
2022/03/23 07:35:46;;;;;;;42.10;25.80;;;;;;;6.68;55.57;101755.20;130427;1268;97983;-79
2022/03/23 07:38:49;;;;;;;44.20;24.60;;;;;;;6.83;55.39;101753.27;130488;1268;112280;-78
2022/03/23 07:41:53;;;;;;;43.90;25.90;;;;;;;6.96;55.24;101746.98;130366;1268;98068;-75
2022/03/23 07:44:56;;;;;;;44.40;26.10;;;;;;;7.10;55.46;101747.73;130404;1267;112309;-76
2022/03/23 07:47:59;;;;;;;43.40;26.70;;;;;;;7.25;55.43;101746.61;130501;1268;99181;-76
2022/03/23 07:51:02;;;;;;;43.00;26.00;;;;;;;7.41;55.23;101742.95;130304;1268;97956;-76
2022/03/23 07:54:04;;;;;;;43.80;26.50;;;;;;;7.61;55.17;101737.83;130524;1268;99054;-76
2022/03/23 07:57:07;;;;;;;44.30;26.80;;;;;;;7.79;54.92;101740.01;130488;1268;99124;-77
2022/03/23 08:00:13;;;;;;;47.10;27.20;;;;;;;7.95;54.80;101736.17;130450;1268;98754;-76
2022/03/23 08:03:16;;;;;;;49.50;27.00;;;;;;;8.09;54.98;101728.54;130412;1268;112304;-76
2022/03/23 08:06:18;;;;;;;45.20;26.40;;;;;;;8.25;54.79;101727.83;130464;1267;97992;-76
2022/03/23 08:09:21;;;;;;;42.30;26.00;;;;;;;8.42;54.30;101729.06;130305;1268;98754;-75
2022/03/23 08:12:23;;;;;;;41.20;24.90;;;;;;;8.58;54.23;101722.31;130305;1268;99212;-74
2022/03/23 08:15:29;;;;;;;43.60;26.50;;;;;;;8.72;54.09;101719.07;130311;1268;98751;-74
2022/03/23 08:18:32;;;;;;;46.40;27.50;;;;;;;8.88;53.85;101712.79;130390;1268;112271;-73
2022/03/23 08:21:35;;;;;;;43.20;25.90;;;;;;;9.07;53.48;101710.27;130370;1267;112447;-74
2022/03/23 08:24:38;;;;;;;40.70;25.70;;;;;;;9.25;53.49;101707.00;130397;1268;99038;-74
2022/03/23 08:27:41;;;;;;;42.80;24.90;;;;;;;9.40;53.17;101707.58;130253;1268;97957;-74
2022/03/23 08:30:44;;;;;;;44.20;25.60;;;;;;;9.53;52.68;101703.80;130404;1270;98661;-74
2022/03/23 08:33:47;;;;;;;42.80;24.60;;;;;;;9.68;52.48;101704.11;130398;1269;98002;-73
2022/03/23 08:36:49;;;;;;;40.70;24.50;;;;;;;9.98;51.54;101702.23;130274;1270;97991;-74
2022/03/23 08:39:52;;;;;;;41.10;24.50;;;;;;;10.28;51.79;101701.48;130464;1270;98754;-73
2022/03/23 08:42:57;;;;;;;40.60;25.00;;;;;;;10.53;51.77;101693.58;130249;1271;97985;-73
2022/03/23 08:46:00;;;;;;;37.70;24.60;;;;;;;10.68;51.42;101693.34;130352;1270;112536;-75
2022/03/23 08:49:02;;;;;;;39.20;24.50;;;;;;;10.87;51.06;101688.42;130316;1271;97960;-79
2022/03/23 08:52:06;;;;;;;36.40;23.40;;;;;;;11.03;51.25;101684.21;130559;1270;98621;-79
2022/03/23 08:55:14;;;;;;;40.20;24.10;;;;;;;11.07;50.79;101685.12;130288;1271;113766;-78
2022/03/23 08:58:17;;;;;;;34.40;22.00;;;;;;;11.16;47.68;101682.59;130239;1271;112348;-74
2022/03/23 09:01:19;;;;;;;32.60;21.40;;;;;;;11.48;45.77;101684.67;130264;1271;97992;-74
2022/03/23 09:04:22;;;;;;;33.90;21.80;;;;;;;11.81;43.28;101684.86;130268;1270;98569;-73
2022/03/23 09:07:25;;;;;;;34.20;21.90;;;;;;;12.11;45.67;101682.61;130262;1271;99178;-74
2022/03/23 09:10:27;;;;;;;31.60;20.60;;;;;;;12.32;43.48;101679.55;130260;1271;98084;-74
2022/03/23 09:13:30;;;;;;;28.90;19.90;;;;;;;12.45;44.07;101669.36;130302;1270;97962;-74
2022/03/23 09:16:34;;;;;;;36.10;20.60;;;;;;;12.59;43.78;101663.23;130237;1271;97978;-73
2022/03/23 09:19:37;;;;;;;31.00;19.80;;;;;;;12.77;41.68;101654.71;130395;1271;98666;-75
2022/03/23 09:22:40;;;;;;;34.80;22.30;;;;;;;12.95;42.09;101653.64;130249;1271;97959;-74
2022/03/23 09:25:43;;;;;;;33.20;22.10;;;;;;;13.10;41.11;101653.23;130259;1271;97994;-75
2022/03/23 09:28:46;;;;;;;33.20;21.50;;;;;;;13.25;42.26;101649.98;130349;1270;97994;-75
2022/03/23 09:31:49;;;;;;;32.40;20.80;;;;;;;13.33;43.09;101648.56;130282;1270;97962;-73
2022/03/23 09:34:52;;;;;;;35.40;20.60;;;;;;;13.33;44.03;101643.74;130313;1268;99156;-73
2022/03/23 09:37:56;;;;;;;32.70;20.60;;;;;;;13.31;43.97;101643.92;130322;1268;98055;-74
2022/03/23 09:40:59;;;;;;;34.80;22.30;;;;;;;13.33;44.37;101638.16;130296;1268;112412;-76
2022/03/23 09:44:02;;;;;;;35.50;21.80;;;;;;;13.38;44.38;101637.11;130291;1268;98058;-73
2022/03/23 09:47:06;;;;;;;35.70;23.30;;;;;;;13.40;43.78;101635.10;130326;1268;98633;-73
2022/03/23 09:50:11;;;;;;;35.20;23.50;;;;;;;13.50;42.69;101622.38;130380;1268;112333;-73
2022/03/23 09:53:14;;;;;;;38.20;24.40;;;;;;;13.63;43.50;101621.91;130328;1268;117234;-73
2022/03/23 09:56:19;;;;;;;36.30;24.60;;;;;;;13.77;41.86;101619.80;130350;1268;112302;-73
2022/03/23 09:59:22;;;;;;;39.30;25.10;;;;;;;13.89;43.49;101612.71;130387;1268;112298;-73
2022/03/23 10:03:11;;;;;;;33.80;23.10;;;;;;;13.98;43.29;101611.22;130293;1268;112131;-73
2022/03/23 10:06:52;;;;;;;32.20;21.90;;;;;;;14.06;43.78;101606.58;130344;1267;112279;-73
2022/03/23 10:10:21;;;;;;;33.70;22.10;;;;;;;14.12;43.19;101601.70;130320;1268;112395;-74
2022/03/23 10:14:05;;;;;;;35.60;22.40;;;;;;;14.09;42.37;101599.26;130330;1267;112284;-73
2022/03/23 10:17:43;;;;;;;28.30;18.40;;;;;;;14.13;42.48;101595.80;129829;1268;112290;-73
2022/03/23 10:20:45;;;;;;;27.70;19.40;;;;;;;14.13;42.39;101591.88;130382;1268;112322;-71
2022/03/23 10:24:06;;;;;;;27.80;17.10;;;;;;;14.16;41.84;101585.77;130323;1268;99044;-72
2022/03/23 10:27:11;;;;;;;26.40;17.40;;;;;;;14.27;41.58;101582.96;130198;1268;111289;-72
2022/03/23 10:30:17;;;;;;;29.70;18.40;;;;;;;14.28;41.40;101574.58;130362;1268;112708;-72
2022/03/23 10:33:22;;;;;;;27.80;18.30;;;;;;;14.33;41.22;101567.85;130291;1270;112320;-72
2022/03/23 10:36:27;;;;;;;30.00;19.10;;;;;;;14.38;41.40;101568.09;130394;1268;112297;-71
2022/03/23 10:39:31;;;;;;;24.90;16.60;;;;;;;14.44;41.23;101567.46;130394;1268;111362;-74
2022/03/23 10:42:35;;;;;;;26.90;18.00;;;;;;;14.52;40.27;101564.82;130299;1268;118506;-74
2022/03/23 10:45:38;;;;;;;26.90;17.80;;;;;;;14.60;40.86;101563.69;130318;1268;111994;-73
2022/03/23 10:48:51;;;;;;;25.10;16.10;;;;;;;14.65;40.57;101563.05;130387;1268;111245;-74
2022/03/23 10:51:56;;;;;;;25.40;16.70;;;;;;;14.65;40.36;101556.09;130311;1268;112301;-72
2022/03/23 10:55:00;;;;;;;27.20;17.20;;;;;;;14.63;40.30;101552.14;130412;1268;112481;-78
2022/03/23 10:58:27;;;;;;;32.30;21.00;;;;;;;14.65;39.41;101548.15;130355;1271;112368;-75
2022/03/23 11:01:29;;;;;;;32.00;20.50;;;;;;;14.80;40.36;101546.52;130404;1269;112063;-72
2022/03/23 11:04:46;;;;;;;35.00;21.00;;;;;;;14.86;40.00;101544.84;130216;1271;98914;-73
2022/03/23 11:07:49;;;;;;;33.10;22.30;;;;;;;14.93;40.43;101535.61;130118;1271;112244;-74
2022/03/23 11:17:40;;;;;;;28.30;19.60;;;;;;;15.14;39.20;101521.39;130316;1269;112469;-74
2022/03/23 11:20:45;;;;;;;27.70;19.20;;;;;;;15.25;39.55;101513.08;130277;1271;111320;-72
2022/03/23 11:23:47;;;;;;;26.00;17.50;;;;;;;15.33;39.58;101506.08;130249;1271;112361;-74
2022/03/23 11:26:50;;;;;;;24.10;16.70;;;;;;;15.42;38.36;101497.13;130176;1271;98133;-74
2022/03/23 11:29:56;;;;;;;26.00;17.80;;;;;;;15.51;38.90;101497.21;130380;1271;98750;-73
2022/03/23 11:32:59;;;;;;;24.70;17.20;;;;;;;15.56;38.56;101487.40;130334;1271;118656;-73
2022/03/23 11:36:05;;;;;;;24.60;16.40;;;;;;;15.61;38.32;101483.89;130257;1271;112002;-72
2022/03/23 11:39:08;;;;;;;25.90;17.60;;;;;;;15.62;38.35;101482.13;130209;1271;112318;-73
2022/03/23 11:42:14;;;;;;;25.30;16.40;;;;;;;15.61;38.43;101474.77;130253;1271;97957;-74
2022/03/23 11:45:18;;;;;;;24.10;16.70;;;;;;;15.61;38.28;101462.92;130199;1271;113670;-73
2022/03/23 11:48:31;;;;;;;22.10;16.20;;;;;;;15.66;37.90;101458.97;130246;1271;112285;-73
2022/03/23 11:51:57;;;;;;;22.30;15.90;;;;;;;15.75;37.05;101456.11;130217;1269;117094;-73
2022/03/23 11:58:43;;;;;;;23.70;14.50;;;;;;;15.95;35.72;101445.02;129869;1274;111781;-73
2022/03/23 12:01:46;;;;;;;20.80;14.30;;;;;;;16.08;35.56;101432.64;129899;1274;99395;-74
2022/03/23 12:04:49;;;;;;;18.80;13.50;;;;;;;16.18;36.36;101431.18;130254;1270;97964;-73
2022/03/23 12:07:52;;;;;;;20.20;13.10;;;;;;;16.24;35.92;101420.80;130184;1271;97981;-73
2022/03/23 12:10:55;;;;;;;19.80;13.00;;;;;;;16.35;35.13;101427.27;130358;1268;98629;-74
2022/03/23 12:13:58;;;;;;;17.70;12.20;;;;;;;16.47;34.93;101423.61;130216;1270;98101;-73
2022/03/23 12:17:17;;;;;;;16.20;11.30;;;;;;;16.53;35.62;101416.42;130302;1271;111309;-73
2022/03/23 12:20:28;;;;;;;13.00;8.90;;;;;;;16.51;32.48;101411.91;130170;1270;118420;-73
2022/03/23 12:23:39;;;;;;;15.60;9.40;;;;;;;16.60;33.22;101405.94;130133;1270;239489;-73
2022/03/23 12:26:49;;;;;;;14.30;9.40;;;;;;;16.60;33.92;101404.15;130221;1270;112447;-74
2022/03/23 12:29:53;;;;;;;12.80;8.60;;;;;;;16.67;31.90;101393.09;130247;1268;112331;-73
2022/03/23 12:32:57;;;;;;;14.90;9.90;;;;;;;16.75;31.51;101389.08;130261;1271;112298;-73
2022/03/23 12:36:01;;;;;;;17.30;8.90;;;;;;;16.85;31.73;101387.84;130252;1270;113047;-74
2022/03/23 12:39:04;;;;;;;10.80;8.30;;;;;;;16.92;29.61;101374.61;130328;1271;112055;-74
2022/03/23 12:42:18;;;;;;;12.90;8.70;;;;;;;17.06;30.62;101370.11;130428;1270;97972;-73
2022/03/23 12:45:24;;;;;;;11.60;8.90;;;;;;;17.14;31.85;101368.25;130275;1270;112273;-73
2022/03/23 12:58:39;;;;;;;10.00;6.80;;;;;;;17.32;30.26;101351.77;130396;1271;111484;-74
2022/03/23 13:01:42;;;;;;;9.40;6.40;;;;;;;17.25;29.64;101348.94;130440;1270;111308;-73
2022/03/23 13:04:52;;;;;;;10.10;6.80;;;;;;;17.20;30.53;101345.67;132034;1268;98059;-73
2022/03/23 13:07:54;;;;;;;9.20;6.20;;;;;;;17.14;29.94;101342.77;130619;1270;110993;-73
2022/03/23 13:10:58;;;;;;;7.80;6.10;;;;;;;17.15;29.98;101336.58;130477;1270;98751;-73
2022/03/23 13:14:01;;;;;;;9.00;6.50;;;;;;;17.18;29.30;101330.81;130756;1268;112330;-72
2022/03/23 13:17:06;;;;;;;10.80;6.80;;;;;;;17.24;29.11;101337.11;130302;1268;112323;-72
2022/03/23 13:20:11;;;;;;;10.30;7.40;;;;;;;17.28;28.69;101330.77;130443;1268;112021;-72
2022/03/23 13:23:17;;;;;;;13.10;7.30;;;;;;;17.30;29.16;101324.65;130339;1270;112539;-72
2022/03/23 13:26:21;;;;;;;13.70;7.90;;;;;;;17.29;29.37;101323.65;130254;1269;112309;-72
2022/03/23 13:29:27;;;;;;;10.90;7.70;;;;;;;17.33;27.59;101316.76;130196;1270;116590;-72
2022/03/23 13:32:34;;;;;;;12.10;8.30;;;;;;;17.43;25.86;101314.17;130250;1271;118631;-73
2022/03/23 13:35:43;;;;;;;11.90;7.90;;;;;;;17.55;25.38;101311.58;130673;1270;112384;-73
2022/03/23 13:38:48;;;;;;;8.30;6.70;;;;;;;17.66;26.00;101310.73;130560;1268;112102;-72
2022/03/23 13:45:27;;;;;;;9.50;7.00;;;;;;;17.82;24.27;101309.10;129709;1274;118606;-73
2022/03/23 13:48:30;;;;;;;10.80;7.20;;;;;;;17.89;24.62;101305.24;129646;1274;112363;-73
2022/03/23 13:51:36;;;;;;;9.90;7.00;;;;;;;17.92;24.40;101296.84;130359;1268;112426;-72
2022/03/23 13:54:39;;;;;;;9.80;6.40;;;;;;;17.96;20.99;101292.80;130247;1271;112663;-72
2022/03/23 13:57:42;;;;;;;9.30;6.60;;;;;;;18.00;23.38;101284.51;130423;1270;116781;-71
2022/03/23 14:00:48;;;;;;;11.10;6.90;;;;;;;17.99;22.38;101287.52;130057;1271;99149;-72
2022/03/23 14:03:52;;;;;;;9.00;6.30;;;;;;;17.98;23.42;101280.60;130610;1268;112361;-74
2022/03/23 14:06:58;;;;;;;9.10;6.50;;;;;;;17.98;22.28;101278.71;130526;1269;112698;-71
2022/03/23 14:10:01;;;;;;;9.60;7.10;;;;;;;17.99;22.28;101278.73;130600;1270;112222;-74
2022/03/23 14:13:08;;;;;;;9.10;6.30;;;;;;;18.01;23.01;101270.79;130368;1270;98851;-71
2022/03/23 14:16:11;;;;;;;10.90;6.80;;;;;;;17.95;24.36;101264.42;130432;1270;112095;-72
2022/03/23 14:19:14;;;;;;;9.10;6.40;;;;;;;17.93;21.23;101264.16;130282;1269;97973;-73
2022/03/23 14:22:19;;;;;;;10.30;7.20;;;;;;;17.93;21.66;101259.80;130371;1269;98733;-74
2022/03/23 14:25:24;;;;;;;15.00;7.60;;;;;;;17.93;22.34;101249.17;130386;1270;112312;-75
2022/03/23 14:28:30;;;;;;;13.70;7.90;;;;;;;17.93;23.58;101251.29;130340;1270;113198;-73
2022/03/23 14:31:32;;;;;;;9.30;6.30;;;;;;;17.87;23.34;101242.13;130302;1270;112363;-74